sensor_id;sensor_type;location;lat;lon;timestamp;P1;durP1;ratioP1;P2;durP2;ratioP2
68800;SDS011;55784;50.734;7.086;2023-12-14T00:01:24;11.13;;;4.27;;
68800;SDS011;55784;50.734;7.086;2023-12-14T00:03:49;13.03;;;4.87;;
68800;SDS011;55784;50.734;7.086;2023-12-14T00:06:15;12.43;;;4.85;;
68800;SDS011;55784;50.734;7.086;2023-12-14T00:08:40;11.60;;;4.55;;
68800;SDS011;55784;50.734;7.086;2023-12-14T00:11:06;11.23;;;4.33;;
68800;SDS011;55784;50.734;7.086;2023-12-14T00:13:33;13.18;;;4.75;;
68800;SDS011;55784;50.734;7.086;2023-12-14T00:15:58;11.13;;;4.30;;
68800;SDS011;55784;50.734;7.086;2023-12-14T00:18:24;13.95;;;4.40;;
68800;SDS011;55784;50.734;7.086;2023-12-14T00:20:50;12.97;;;4.43;;
68800;SDS011;55784;50.734;7.086;2023-12-14T00:23:16;12.25;;;4.38;;
68800;SDS011;55784;50.734;7.086;2023-12-14T00:25:41;10.97;;;4.10;;
68800;SDS011;55784;50.734;7.086;2023-12-14T00:28:07;13.68;;;4.10;;
68800;SDS011;55784;50.734;7.086;2023-12-14T00:30:32;11.32;;;3.97;;
68800;SDS011;55784;50.734;7.086;2023-12-14T00:32:57;11.53;;;4.23;;
68800;SDS011;55784;50.734;7.086;2023-12-14T00:35:23;12.07;;;4.17;;
68800;SDS011;55784;50.734;7.086;2023-12-14T00:37:48;12.97;;;4.33;;
68800;SDS011;55784;50.734;7.086;2023-12-14T00:40:13;12.70;;;4.30;;
68800;SDS011;55784;50.734;7.086;2023-12-14T00:42:38;15.37;;;4.90;;
68800;SDS011;55784;50.734;7.086;2023-12-14T00:45:04;12.27;;;4.47;;
68800;SDS011;55784;50.734;7.086;2023-12-14T00:47:29;11.38;;;4.72;;
68800;SDS011;55784;50.734;7.086;2023-12-14T00:49:55;14.07;;;5.07;;
68800;SDS011;55784;50.734;7.086;2023-12-14T00:52:20;13.70;;;4.67;;
68800;SDS011;55784;50.734;7.086;2023-12-14T00:54:45;14.33;;;4.80;;
68800;SDS011;55784;50.734;7.086;2023-12-14T00:57:11;14.60;;;5.40;;
68800;SDS011;55784;50.734;7.086;2023-12-14T00:59:36;15.03;;;5.33;;
68800;SDS011;55784;50.734;7.086;2023-12-14T01:02:01;14.70;;;5.23;;
68800;SDS011;55784;50.734;7.086;2023-12-14T01:04:27;15.17;;;5.20;;
68800;SDS011;55784;50.734;7.086;2023-12-14T01:06:52;13.90;;;4.90;;
68800;SDS011;55784;50.734;7.086;2023-12-14T01:09:17;15.55;;;5.47;;
68800;SDS011;55784;50.734;7.086;2023-12-14T01:11:42;14.47;;;5.30;;
68800;SDS011;55784;50.734;7.086;2023-12-14T01:14:08;17.00;;;5.67;;
68800;SDS011;55784;50.734;7.086;2023-12-14T01:16:33;18.30;;;6.10;;
68800;SDS011;55784;50.734;7.086;2023-12-14T01:18:58;15.03;;;6.10;;
68800;SDS011;55784;50.734;7.086;2023-12-14T01:21:24;20.52;;;6.55;;
68800;SDS011;55784;50.734;7.086;2023-12-14T01:23:49;22.73;;;7.45;;
68800;SDS011;55784;50.734;7.086;2023-12-14T01:26:15;22.27;;;7.57;;
68800;SDS011;55784;50.734;7.086;2023-12-14T01:28:40;20.80;;;7.43;;
68800;SDS011;55784;50.734;7.086;2023-12-14T01:31:06;21.47;;;7.50;;
68800;SDS011;55784;50.734;7.086;2023-12-14T01:33:31;21.83;;;7.85;;
68800;SDS011;55784;50.734;7.086;2023-12-14T01:35:57;20.50;;;7.23;;
68800;SDS011;55784;50.734;7.086;2023-12-14T01:38:22;21.60;;;7.23;;
68800;SDS011;55784;50.734;7.086;2023-12-14T01:40:47;23.63;;;8.77;;
68800;SDS011;55784;50.734;7.086;2023-12-14T01:43:12;24.57;;;9.37;;
68800;SDS011;55784;50.734;7.086;2023-12-14T01:45:38;26.80;;;9.50;;
68800;SDS011;55784;50.734;7.086;2023-12-14T01:48:06;33.23;;;10.43;;
68800;SDS011;55784;50.734;7.086;2023-12-14T01:50:31;32.67;;;11.50;;
68800;SDS011;55784;50.734;7.086;2023-12-14T01:52:57;33.67;;;11.00;;
68800;SDS011;55784;50.734;7.086;2023-12-14T01:55:22;37.57;;;11.57;;
68800;SDS011;55784;50.734;7.086;2023-12-14T01:57:47;35.30;;;11.55;;
68800;SDS011;55784;50.734;7.086;2023-12-14T02:00:15;36.83;;;11.52;;
68800;SDS011;55784;50.734;7.086;2023-12-14T02:03:06;39.70;;;12.43;;
68800;SDS011;55784;50.734;7.086;2023-12-14T02:05:31;38.03;;;12.50;;
68800;SDS011;55784;50.734;7.086;2023-12-14T02:07:57;43.03;;;12.13;;
68800;SDS011;55784;50.734;7.086;2023-12-14T02:10:23;42.95;;;12.93;;
68800;SDS011;55784;50.734;7.086;2023-12-14T02:12:48;41.27;;;12.23;;
68800;SDS011;55784;50.734;7.086;2023-12-14T02:15:14;43.50;;;13.10;;
68800;SDS011;55784;50.734;7.086;2023-12-14T02:17:39;42.23;;;12.40;;
68800;SDS011;55784;50.734;7.086;2023-12-14T02:20:05;48.07;;;12.73;;
68800;SDS011;55784;50.734;7.086;2023-12-14T02:25:18;44.75;;;12.50;;
68800;SDS011;55784;50.734;7.086;2023-12-14T02:27:44;42.78;;;12.32;;
68800;SDS011;55784;50.734;7.086;2023-12-14T02:30:10;42.60;;;12.33;;
68800;SDS011;55784;50.734;7.086;2023-12-14T02:32:36;44.28;;;12.98;;
68800;SDS011;55784;50.734;7.086;2023-12-14T02:35:02;43.13;;;12.47;;
68800;SDS011;55784;50.734;7.086;2023-12-14T02:37:27;45.25;;;13.00;;
68800;SDS011;55784;50.734;7.086;2023-12-14T02:39:53;46.10;;;13.30;;
68800;SDS011;55784;50.734;7.086;2023-12-14T02:42:18;45.10;;;12.43;;
68800;SDS011;55784;50.734;7.086;2023-12-14T02:44:43;46.03;;;13.97;;
68800;SDS011;55784;50.734;7.086;2023-12-14T02:47:09;47.03;;;14.20;;
68800;SDS011;55784;50.734;7.086;2023-12-14T02:49:34;47.30;;;13.03;;
68800;SDS011;55784;50.734;7.086;2023-12-14T02:55:07;50.23;;;13.97;;
68800;SDS011;55784;50.734;7.086;2023-12-14T02:57:33;50.78;;;13.88;;
68800;SDS011;55784;50.734;7.086;2023-12-14T02:59:58;46.00;;;13.10;;
68800;SDS011;55784;50.734;7.086;2023-12-14T03:02:23;43.87;;;12.93;;
68800;SDS011;55784;50.734;7.086;2023-12-14T03:04:49;47.03;;;11.77;;
68800;SDS011;55784;50.734;7.086;2023-12-14T03:07:14;48.13;;;13.93;;
68800;SDS011;55784;50.734;7.086;2023-12-14T03:09:40;50.13;;;13.87;;
68800;SDS011;55784;50.734;7.086;2023-12-14T03:12:09;46.92;;;13.32;;
68800;SDS011;55784;50.734;7.086;2023-12-14T03:14:35;49.55;;;12.88;;
68800;SDS011;55784;50.734;7.086;2023-12-14T03:17:01;50.23;;;13.47;;
68800;SDS011;55784;50.734;7.086;2023-12-14T03:19:27;53.42;;;13.73;;
68800;SDS011;55784;50.734;7.086;2023-12-14T03:21:53;53.53;;;15.13;;
68800;SDS011;55784;50.734;7.086;2023-12-14T03:24:18;61.47;;;16.00;;
68800;SDS011;55784;50.734;7.086;2023-12-14T03:26:43;57.40;;;14.50;;
68800;SDS011;55784;50.734;7.086;2023-12-14T03:29:09;55.07;;;15.27;;
68800;SDS011;55784;50.734;7.086;2023-12-14T03:31:34;53.13;;;13.57;;
68800;SDS011;55784;50.734;7.086;2023-12-14T03:34:00;52.50;;;14.35;;
68800;SDS011;55784;50.734;7.086;2023-12-14T03:36:25;55.88;;;14.68;;
68800;SDS011;55784;50.734;7.086;2023-12-14T03:38:52;53.30;;;14.20;;
68800;SDS011;55784;50.734;7.086;2023-12-14T03:41:18;55.85;;;14.65;;
68800;SDS011;55784;50.734;7.086;2023-12-14T03:43:43;52.40;;;14.80;;
68800;SDS011;55784;50.734;7.086;2023-12-14T03:46:09;47.87;;;13.93;;
68800;SDS011;55784;50.734;7.086;2023-12-14T03:48:34;47.88;;;14.93;;
68800;SDS011;55784;50.734;7.086;2023-12-14T03:51:03;52.70;;;14.67;;
68800;SDS011;55784;50.734;7.086;2023-12-14T03:53:29;49.47;;;14.25;;
68800;SDS011;55784;50.734;7.086;2023-12-14T03:55:54;45.63;;;13.33;;
68800;SDS011;55784;50.734;7.086;2023-12-14T03:58:20;48.17;;;14.17;;
68800;SDS011;55784;50.734;7.086;2023-12-14T04:00:45;42.03;;;13.57;;
68800;SDS011;55784;50.734;7.086;2023-12-14T04:03:13;49.60;;;15.57;;
68800;SDS011;55784;50.734;7.086;2023-12-14T04:05:39;48.70;;;13.77;;
68800;SDS011;55784;50.734;7.086;2023-12-14T04:08:04;40.47;;;12.52;;
68800;SDS011;55784;50.734;7.086;2023-12-14T04:10:30;38.93;;;11.00;;
68800;SDS011;55784;50.734;7.086;2023-12-14T04:12:55;38.73;;;11.17;;
68800;SDS011;55784;50.734;7.086;2023-12-14T04:15:21;36.93;;;10.23;;
68800;SDS011;55784;50.734;7.086;2023-12-14T04:17:46;39.22;;;11.35;;
68800;SDS011;55784;50.734;7.086;2023-12-14T04:20:12;36.75;;;11.18;;
68800;SDS011;55784;50.734;7.086;2023-12-14T04:22:40;46.00;;;12.77;;
68800;SDS011;55784;50.734;7.086;2023-12-14T04:25:06;37.90;;;10.77;;
68800;SDS011;55784;50.734;7.086;2023-12-14T04:27:31;37.27;;;10.43;;
68800;SDS011;55784;50.734;7.086;2023-12-14T04:29:57;39.27;;;11.13;;
68800;SDS011;55784;50.734;7.086;2023-12-14T04:32:22;38.40;;;11.47;;
68800;SDS011;55784;50.734;7.086;2023-12-14T04:34:47;41.13;;;11.63;;
68800;SDS011;55784;50.734;7.086;2023-12-14T04:37:12;39.40;;;11.87;;
68800;SDS011;55784;50.734;7.086;2023-12-14T04:39:38;37.47;;;10.97;;
68800;SDS011;55784;50.734;7.086;2023-12-14T04:42:03;40.63;;;11.00;;
68800;SDS011;55784;50.734;7.086;2023-12-14T04:44:28;39.40;;;11.50;;
68800;SDS011;55784;50.734;7.086;2023-12-14T04:46:54;39.23;;;11.70;;
68800;SDS011;55784;50.734;7.086;2023-12-14T04:49:19;40.27;;;12.50;;
68800;SDS011;55784;50.734;7.086;2023-12-14T04:51:44;38.13;;;11.83;;
68800;SDS011;55784;50.734;7.086;2023-12-14T04:54:10;38.57;;;13.00;;
68800;SDS011;55784;50.734;7.086;2023-12-14T04:56:35;34.90;;;11.43;;
68800;SDS011;55784;50.734;7.086;2023-12-14T04:59:00;33.67;;;11.13;;
68800;SDS011;55784;50.734;7.086;2023-12-14T05:01:26;34.50;;;11.02;;
68800;SDS011;55784;50.734;7.086;2023-12-14T05:03:54;32.22;;;10.45;;
68800;SDS011;55784;50.734;7.086;2023-12-14T05:06:20;28.70;;;9.75;;
68800;SDS011;55784;50.734;7.086;2023-12-14T05:08:45;28.30;;;9.55;;
68800;SDS011;55784;50.734;7.086;2023-12-14T05:11:14;26.60;;;9.18;;
68800;SDS011;55784;50.734;7.086;2023-12-14T05:13:40;26.00;;;9.93;;
68800;SDS011;55784;50.734;7.086;2023-12-14T05:16:06;26.80;;;9.93;;
68800;SDS011;55784;50.734;7.086;2023-12-14T05:18:32;26.58;;;9.50;;
68800;SDS011;55784;50.734;7.086;2023-12-14T05:20:57;30.10;;;10.60;;
68800;SDS011;55784;50.734;7.086;2023-12-14T05:23:24;27.20;;;8.82;;
68800;SDS011;55784;50.734;7.086;2023-12-14T05:25:49;25.83;;;9.43;;
68800;SDS011;55784;50.734;7.086;2023-12-14T05:28:15;26.05;;;8.70;;
68800;SDS011;55784;50.734;7.086;2023-12-14T05:30:40;26.90;;;9.37;;
68800;SDS011;55784;50.734;7.086;2023-12-14T05:33:06;28.35;;;9.73;;
68800;SDS011;55784;50.734;7.086;2023-12-14T05:35:31;27.13;;;9.77;;
68800;SDS011;55784;50.734;7.086;2023-12-14T05:37:57;29.67;;;10.57;;
68800;SDS011;55784;50.734;7.086;2023-12-14T05:40:22;30.27;;;10.43;;
68800;SDS011;55784;50.734;7.086;2023-12-14T05:42:47;25.77;;;9.43;;
68800;SDS011;55784;50.734;7.086;2023-12-14T05:45:13;43.43;;;13.80;;
68800;SDS011;55784;50.734;7.086;2023-12-14T05:47:38;48.67;;;14.67;;
68800;SDS011;55784;50.734;7.086;2023-12-14T05:50:04;43.47;;;13.15;;
68800;SDS011;55784;50.734;7.086;2023-12-14T05:52:30;46.38;;;14.93;;
68800;SDS011;55784;50.734;7.086;2023-12-14T05:54:55;47.10;;;14.53;;
68800;SDS011;55784;50.734;7.086;2023-12-14T05:57:21;45.47;;;13.17;;
68800;SDS011;55784;50.734;7.086;2023-12-14T05:59:46;51.20;;;14.43;;
68800;SDS011;55784;50.734;7.086;2023-12-14T06:02:11;49.10;;;14.87;;
68800;SDS011;55784;50.734;7.086;2023-12-14T06:04:37;49.13;;;16.57;;
68800;SDS011;55784;50.734;7.086;2023-12-14T06:07:02;43.45;;;14.45;;
68800;SDS011;55784;50.734;7.086;2023-12-14T06:09:27;47.45;;;15.00;;
68800;SDS011;55784;50.734;7.086;2023-12-14T06:12:00;49.28;;;14.98;;
68800;SDS011;55784;50.734;7.086;2023-12-14T06:14:30;49.33;;;14.47;;
68800;SDS011;55784;50.734;7.086;2023-12-14T06:16:56;50.60;;;16.02;;
68800;SDS011;55784;50.734;7.086;2023-12-14T06:19:21;51.95;;;15.32;;
68800;SDS011;55784;50.734;7.086;2023-12-14T06:21:47;52.97;;;14.83;;
68800;SDS011;55784;50.734;7.086;2023-12-14T06:24:13;54.07;;;16.27;;
68800;SDS011;55784;50.734;7.086;2023-12-14T06:26:41;59.00;;;18.45;;
68800;SDS011;55784;50.734;7.086;2023-12-14T06:29:08;56.13;;;15.13;;
68800;SDS011;55784;50.734;7.086;2023-12-14T06:31:34;53.35;;;15.13;;
68800;SDS011;55784;50.734;7.086;2023-12-14T06:33:59;53.67;;;15.63;;
68800;SDS011;55784;50.734;7.086;2023-12-14T06:36:28;54.80;;;15.50;;
68800;SDS011;55784;50.734;7.086;2023-12-14T06:38:54;51.70;;;15.68;;
68800;SDS011;55784;50.734;7.086;2023-12-14T06:41:23;52.07;;;16.43;;
68800;SDS011;55784;50.734;7.086;2023-12-14T06:43:49;53.67;;;16.48;;
68800;SDS011;55784;50.734;7.086;2023-12-14T06:46:15;48.00;;;15.75;;
68800;SDS011;55784;50.734;7.086;2023-12-14T06:48:40;46.93;;;15.20;;
68800;SDS011;55784;50.734;7.086;2023-12-14T06:51:06;44.60;;;15.03;;
68800;SDS011;55784;50.734;7.086;2023-12-14T06:53:31;44.13;;;14.70;;
68800;SDS011;55784;50.734;7.086;2023-12-14T06:55:57;43.50;;;13.82;;
68800;SDS011;55784;50.734;7.086;2023-12-14T06:58:22;48.60;;;15.17;;
68800;SDS011;55784;50.734;7.086;2023-12-14T07:00:47;48.53;;;14.37;;
68800;SDS011;55784;50.734;7.086;2023-12-14T07:03:13;52.07;;;16.47;;
68800;SDS011;55784;50.734;7.086;2023-12-14T07:05:39;48.03;;;16.52;;
68800;SDS011;55784;50.734;7.086;2023-12-14T07:08:04;47.50;;;14.37;;
68800;SDS011;55784;50.734;7.086;2023-12-14T07:10:29;49.47;;;15.77;;
68800;SDS011;55784;50.734;7.086;2023-12-14T07:12:55;43.47;;;13.00;;
68800;SDS011;55784;50.734;7.086;2023-12-14T07:15:20;47.40;;;13.82;;
68800;SDS011;55784;50.734;7.086;2023-12-14T07:17:46;43.75;;;13.27;;
68800;SDS011;55784;50.734;7.086;2023-12-14T07:20:11;47.07;;;13.43;;
68800;SDS011;55784;50.734;7.086;2023-12-14T07:22:37;45.30;;;13.23;;
68800;SDS011;55784;50.734;7.086;2023-12-14T07:25:03;43.10;;;12.83;;
68800;SDS011;55784;50.734;7.086;2023-12-14T07:27:28;47.50;;;12.85;;
68800;SDS011;55784;50.734;7.086;2023-12-14T07:29:54;44.73;;;12.43;;
68800;SDS011;55784;50.734;7.086;2023-12-14T07:32:19;49.87;;;14.27;;
68800;SDS011;55784;50.734;7.086;2023-12-14T07:34:44;48.87;;;12.57;;
68800;SDS011;55784;50.734;7.086;2023-12-14T07:37:10;50.53;;;14.45;;
68800;SDS011;55784;50.734;7.086;2023-12-14T07:39:36;47.53;;;12.23;;
68800;SDS011;55784;50.734;7.086;2023-12-14T07:42:02;47.75;;;13.93;;
68800;SDS011;55784;50.734;7.086;2023-12-14T07:44:27;43.97;;;13.03;;
68800;SDS011;55784;50.734;7.086;2023-12-14T07:46:55;47.75;;;12.32;;
68800;SDS011;55784;50.734;7.086;2023-12-14T07:49:27;37.72;;;10.27;;
68800;SDS011;55784;50.734;7.086;2023-12-14T07:51:56;35.70;;;10.77;;
68800;SDS011;55784;50.734;7.086;2023-12-14T07:54:21;39.47;;;10.80;;
68800;SDS011;55784;50.734;7.086;2023-12-14T07:56:47;40.27;;;11.07;;
68800;SDS011;55784;50.734;7.086;2023-12-14T07:59:12;38.57;;;11.17;;
68800;SDS011;55784;50.734;7.086;2023-12-14T08:01:38;38.15;;;10.35;;
68800;SDS011;55784;50.734;7.086;2023-12-14T08:04:03;38.23;;;11.17;;
68800;SDS011;55784;50.734;7.086;2023-12-14T08:06:29;43.70;;;11.57;;
68800;SDS011;55784;50.734;7.086;2023-12-14T08:08:55;38.85;;;11.10;;
68800;SDS011;55784;50.734;7.086;2023-12-14T08:11:23;42.70;;;11.57;;
68800;SDS011;55784;50.734;7.086;2023-12-14T08:13:48;46.53;;;13.30;;
68800;SDS011;55784;50.734;7.086;2023-12-14T08:16:16;48.35;;;10.73;;
68800;SDS011;55784;50.734;7.086;2023-12-14T08:18:44;51.55;;;13.73;;
68800;SDS011;55784;50.734;7.086;2023-12-14T08:21:11;43.93;;;11.63;;
68800;SDS011;55784;50.734;7.086;2023-12-14T08:23:36;47.60;;;10.38;;
68800;SDS011;55784;50.734;7.086;2023-12-14T08:26:02;44.87;;;11.13;;
68800;SDS011;55784;50.734;7.086;2023-12-14T08:28:27;44.25;;;10.93;;
68800;SDS011;55784;50.734;7.086;2023-12-14T08:30:53;49.13;;;12.83;;
68800;SDS011;55784;50.734;7.086;2023-12-14T08:33:18;49.33;;;14.07;;
68800;SDS011;55784;50.734;7.086;2023-12-14T08:35:43;49.93;;;12.03;;
68800;SDS011;55784;50.734;7.086;2023-12-14T08:38:09;43.20;;;10.37;;
68800;SDS011;55784;50.734;7.086;2023-12-14T08:40:36;43.88;;;10.93;;
68800;SDS011;55784;50.734;7.086;2023-12-14T08:43:01;44.00;;;10.70;;
68800;SDS011;55784;50.734;7.086;2023-12-14T08:45:28;34.22;;;9.18;;
68800;SDS011;55784;50.734;7.086;2023-12-14T08:47:53;39.57;;;9.13;;
68800;SDS011;55784;50.734;7.086;2023-12-14T08:50:18;35.60;;;8.80;;
68800;SDS011;55784;50.734;7.086;2023-12-14T08:52:44;38.28;;;9.27;;
68800;SDS011;55784;50.734;7.086;2023-12-14T08:55:09;34.87;;;9.47;;
68800;SDS011;55784;50.734;7.086;2023-12-14T08:57:35;34.93;;;8.73;;
68800;SDS011;55784;50.734;7.086;2023-12-14T09:00:01;30.13;;;8.50;;
68800;SDS011;55784;50.734;7.086;2023-12-14T09:02:29;30.33;;;8.77;;
68800;SDS011;55784;50.734;7.086;2023-12-14T09:04:55;29.73;;;8.40;;
68800;SDS011;55784;50.734;7.086;2023-12-14T09:07:20;29.07;;;8.40;;
68800;SDS011;55784;50.734;7.086;2023-12-14T09:09:45;28.53;;;7.90;;
68800;SDS011;55784;50.734;7.086;2023-12-14T09:12:11;25.50;;;7.20;;
68800;SDS011;55784;50.734;7.086;2023-12-14T09:14:37;27.33;;;7.30;;
68800;SDS011;55784;50.734;7.086;2023-12-14T09:17:02;29.57;;;8.73;;
68800;SDS011;55784;50.734;7.086;2023-12-14T09:19:29;26.30;;;7.37;;
68800;SDS011;55784;50.734;7.086;2023-12-14T09:21:55;26.23;;;7.07;;
68800;SDS011;55784;50.734;7.086;2023-12-14T09:24:24;26.20;;;7.27;;
68800;SDS011;55784;50.734;7.086;2023-12-14T09:26:50;26.70;;;7.50;;
68800;SDS011;55784;50.734;7.086;2023-12-14T09:29:15;26.03;;;7.50;;
68800;SDS011;55784;50.734;7.086;2023-12-14T09:31:41;26.77;;;8.30;;
68800;SDS011;55784;50.734;7.086;2023-12-14T09:34:07;25.00;;;6.90;;
68800;SDS011;55784;50.734;7.086;2023-12-14T09:36:33;23.73;;;7.23;;
68800;SDS011;55784;50.734;7.086;2023-12-14T09:38:59;25.02;;;7.38;;
68800;SDS011;55784;50.734;7.086;2023-12-14T09:41:24;26.40;;;6.90;;
68800;SDS011;55784;50.734;7.086;2023-12-14T09:43:49;26.70;;;7.10;;
68800;SDS011;55784;50.734;7.086;2023-12-14T09:46:16;25.93;;;7.20;;
68800;SDS011;55784;50.734;7.086;2023-12-14T09:48:42;21.95;;;6.03;;
68800;SDS011;55784;50.734;7.086;2023-12-14T09:51:09;24.35;;;6.72;;
68800;SDS011;55784;50.734;7.086;2023-12-14T09:53:36;21.60;;;6.63;;
68800;SDS011;55784;50.734;7.086;2023-12-14T09:56:02;20.07;;;6.60;;
68800;SDS011;55784;50.734;7.086;2023-12-14T09:58:27;19.57;;;5.73;;
68800;SDS011;55784;50.734;7.086;2023-12-14T10:00:57;24.23;;;6.30;;
68800;SDS011;55784;50.734;7.086;2023-12-14T10:03:25;21.45;;;6.13;;
68800;SDS011;55784;50.734;7.086;2023-12-14T10:05:53;21.85;;;6.72;;
68800;SDS011;55784;50.734;7.086;2023-12-14T10:08:20;21.05;;;5.72;;
68800;SDS011;55784;50.734;7.086;2023-12-14T10:10:46;19.83;;;6.03;;
68800;SDS011;55784;50.734;7.086;2023-12-14T10:13:18;19.60;;;6.03;;
68800;SDS011;55784;50.734;7.086;2023-12-14T10:15:45;17.83;;;5.22;;
68800;SDS011;55784;50.734;7.086;2023-12-14T10:18:16;19.38;;;6.55;;
68800;SDS011;55784;50.734;7.086;2023-12-14T10:20:46;20.27;;;5.70;;
68800;SDS011;55784;50.734;7.086;2023-12-14T10:23:12;19.50;;;5.97;;
68800;SDS011;55784;50.734;7.086;2023-12-14T10:32:18;23.17;;;6.95;;
68800;SDS011;55784;50.734;7.086;2023-12-14T10:34:50;24.83;;;8.60;;
68800;SDS011;55784;50.734;7.086;2023-12-14T10:37:18;22.65;;;6.80;;
68800;SDS011;55784;50.734;7.086;2023-12-14T10:39:51;23.10;;;6.53;;
68800;SDS011;55784;50.734;7.086;2023-12-14T10:42:22;20.90;;;7.25;;
68800;SDS011;55784;50.734;7.086;2023-12-14T10:44:56;23.90;;;6.60;;
68800;SDS011;55784;50.734;7.086;2023-12-14T10:47:22;22.05;;;6.85;;
68800;SDS011;55784;50.734;7.086;2023-12-14T10:49:50;21.52;;;6.72;;
68800;SDS011;55784;50.734;7.086;2023-12-14T10:52:19;22.03;;;7.70;;
68800;SDS011;55784;50.734;7.086;2023-12-14T10:54:48;23.80;;;7.60;;
68800;SDS011;55784;50.734;7.086;2023-12-14T10:57:19;22.25;;;6.65;;
68800;SDS011;55784;50.734;7.086;2023-12-14T10:59:47;25.25;;;6.75;;
68800;SDS011;55784;50.734;7.086;2023-12-14T11:02:14;21.42;;;7.13;;
68800;SDS011;55784;50.734;7.086;2023-12-14T11:04:55;22.07;;;6.60;;
68800;SDS011;55784;50.734;7.086;2023-12-14T11:10:09;19.50;;;6.22;;
68800;SDS011;55784;50.734;7.086;2023-12-14T11:13:23;21.40;;;6.30;;
68800;SDS011;55784;50.734;7.086;2023-12-14T11:15:30;19.52;;;6.63;;
68800;SDS011;55784;50.734;7.086;2023-12-14T11:20:51;22.88;;;7.63;;
68800;SDS011;55784;50.734;7.086;2023-12-14T11:25:59;21.45;;;7.32;;
68800;SDS011;55784;50.734;7.086;2023-12-14T11:28:37;24.88;;;7.03;;
68800;SDS011;55784;50.734;7.086;2023-12-14T11:31:09;23.40;;;6.83;;
68800;SDS011;55784;50.734;7.086;2023-12-14T11:33:35;23.50;;;7.28;;
68800;SDS011;55784;50.734;7.086;2023-12-14T11:36:03;22.63;;;7.28;;
68800;SDS011;55784;50.734;7.086;2023-12-14T11:38:33;20.63;;;6.90;;
68800;SDS011;55784;50.734;7.086;2023-12-14T11:41:02;23.13;;;7.88;;
68800;SDS011;55784;50.734;7.086;2023-12-14T11:43:28;22.75;;;8.02;;
68800;SDS011;55784;50.734;7.086;2023-12-14T11:45:54;20.27;;;7.03;;
68800;SDS011;55784;50.734;7.086;2023-12-14T11:48:20;20.67;;;6.72;;
68800;SDS011;55784;50.734;7.086;2023-12-14T11:50:46;24.00;;;8.23;;
68800;SDS011;55784;50.734;7.086;2023-12-14T11:53:12;24.87;;;8.40;;
68800;SDS011;55784;50.734;7.086;2023-12-14T11:55:39;23.27;;;8.07;;
68800;SDS011;55784;50.734;7.086;2023-12-14T11:58:06;25.98;;;7.95;;
68800;SDS011;55784;50.734;7.086;2023-12-14T12:00:36;24.48;;;7.68;;
68800;SDS011;55784;50.734;7.086;2023-12-14T12:03:11;22.87;;;7.63;;
68800;SDS011;55784;50.734;7.086;2023-12-14T12:05:40;23.17;;;7.63;;
68800;SDS011;55784;50.734;7.086;2023-12-14T12:08:07;22.17;;;7.10;;
68800;SDS011;55784;50.734;7.086;2023-12-14T12:10:33;20.95;;;6.90;;
68800;SDS011;55784;50.734;7.086;2023-12-14T12:13:01;20.07;;;6.20;;
68800;SDS011;55784;50.734;7.086;2023-12-14T12:15:38;21.58;;;7.38;;
68800;SDS011;55784;50.734;7.086;2023-12-14T12:18:06;21.60;;;7.70;;
68800;SDS011;55784;50.734;7.086;2023-12-14T12:20:33;21.20;;;7.05;;
68800;SDS011;55784;50.734;7.086;2023-12-14T12:23:00;19.98;;;6.45;;
68800;SDS011;55784;50.734;7.086;2023-12-14T12:25:26;20.47;;;6.50;;
68800;SDS011;55784;50.734;7.086;2023-12-14T12:27:52;20.27;;;6.47;;
68800;SDS011;55784;50.734;7.086;2023-12-14T12:30:19;21.67;;;6.82;;
68800;SDS011;55784;50.734;7.086;2023-12-14T12:32:44;18.40;;;6.30;;
68800;SDS011;55784;50.734;7.086;2023-12-14T12:35:10;20.33;;;6.60;;
68800;SDS011;55784;50.734;7.086;2023-12-14T12:37:36;20.60;;;6.60;;
68800;SDS011;55784;50.734;7.086;2023-12-14T12:40:01;19.27;;;6.33;;
68800;SDS011;55784;50.734;7.086;2023-12-14T12:42:27;19.15;;;6.45;;
68800;SDS011;55784;50.734;7.086;2023-12-14T12:44:54;16.92;;;6.35;;
68800;SDS011;55784;50.734;7.086;2023-12-14T12:47:19;17.27;;;6.00;;
68800;SDS011;55784;50.734;7.086;2023-12-14T12:49:44;20.97;;;6.63;;
68800;SDS011;55784;50.734;7.086;2023-12-14T12:52:10;18.00;;;5.93;;
68800;SDS011;55784;50.734;7.086;2023-12-14T12:54:35;17.27;;;5.90;;
68800;SDS011;55784;50.734;7.086;2023-12-14T12:57:01;19.73;;;6.37;;
68800;SDS011;55784;50.734;7.086;2023-12-14T12:59:26;19.40;;;6.57;;
68800;SDS011;55784;50.734;7.086;2023-12-14T13:01:52;19.30;;;6.05;;
68800;SDS011;55784;50.734;7.086;2023-12-14T13:04:18;18.63;;;5.97;;
68800;SDS011;55784;50.734;7.086;2023-12-14T13:06:45;20.17;;;6.47;;
68800;SDS011;55784;50.734;7.086;2023-12-14T13:09:13;20.98;;;6.22;;
68800;SDS011;55784;50.734;7.086;2023-12-14T13:11:39;18.02;;;6.18;;
68800;SDS011;55784;50.734;7.086;2023-12-14T13:14:04;23.97;;;8.17;;
68800;SDS011;55784;50.734;7.086;2023-12-14T13:16:32;19.80;;;6.27;;
68800;SDS011;55784;50.734;7.086;2023-12-14T13:18:59;19.48;;;5.85;;
68800;SDS011;55784;50.734;7.086;2023-12-14T13:21:24;20.17;;;6.63;;
68800;SDS011;55784;50.734;7.086;2023-12-14T13:23:49;19.42;;;6.18;;
68800;SDS011;55784;50.734;7.086;2023-12-14T13:26:16;19.00;;;6.07;;
68800;SDS011;55784;50.734;7.086;2023-12-14T13:28:41;19.17;;;6.07;;
68800;SDS011;55784;50.734;7.086;2023-12-14T13:31:09;19.03;;;6.10;;
68800;SDS011;55784;50.734;7.086;2023-12-14T13:33:35;17.33;;;5.95;;
68800;SDS011;55784;50.734;7.086;2023-12-14T13:36:00;18.47;;;6.17;;
68800;SDS011;55784;50.734;7.086;2023-12-14T13:38:26;19.57;;;6.43;;
68800;SDS011;55784;50.734;7.086;2023-12-14T13:40:51;18.90;;;6.00;;
68800;SDS011;55784;50.734;7.086;2023-12-14T13:43:17;20.60;;;6.45;;
68800;SDS011;55784;50.734;7.086;2023-12-14T13:45:42;19.43;;;6.30;;
68800;SDS011;55784;50.734;7.086;2023-12-14T13:48:08;17.73;;;6.23;;
68800;SDS011;55784;50.734;7.086;2023-12-14T13:50:33;17.87;;;6.23;;
68800;SDS011;55784;50.734;7.086;2023-12-14T13:52:59;17.42;;;6.40;;
68800;SDS011;55784;50.734;7.086;2023-12-14T13:55:26;16.50;;;5.45;;
68800;SDS011;55784;50.734;7.086;2023-12-14T13:57:52;18.57;;;6.67;;
68800;SDS011;55784;50.734;7.086;2023-12-14T14:00:17;16.40;;;5.53;;
68800;SDS011;55784;50.734;7.086;2023-12-14T14:02:47;17.33;;;6.38;;
68800;SDS011;55784;50.734;7.086;2023-12-14T14:05:12;16.63;;;6.60;;
68800;SDS011;55784;50.734;7.086;2023-12-14T14:07:38;19.97;;;6.60;;
68800;SDS011;55784;50.734;7.086;2023-12-14T14:10:03;16.43;;;5.73;;
68800;SDS011;55784;50.734;7.086;2023-12-14T14:12:30;20.48;;;6.88;;
68800;SDS011;55784;50.734;7.086;2023-12-14T14:14:55;18.33;;;6.70;;
68800;SDS011;55784;50.734;7.086;2023-12-14T14:17:21;19.53;;;6.63;;
68800;SDS011;55784;50.734;7.086;2023-12-14T14:19:46;20.63;;;8.00;;
68800;SDS011;55784;50.734;7.086;2023-12-14T14:22:11;21.73;;;7.20;;
68800;SDS011;55784;50.734;7.086;2023-12-14T14:24:37;21.60;;;7.47;;
68800;SDS011;55784;50.734;7.086;2023-12-14T14:27:02;21.98;;;7.43;;
68800;SDS011;55784;50.734;7.086;2023-12-14T14:29:27;20.83;;;7.53;;
68800;SDS011;55784;50.734;7.086;2023-12-14T14:31:53;19.77;;;6.40;;
68800;SDS011;55784;50.734;7.086;2023-12-14T14:34:18;18.83;;;6.03;;
68800;SDS011;55784;50.734;7.086;2023-12-14T14:36:43;18.80;;;6.03;;
68800;SDS011;55784;50.734;7.086;2023-12-14T14:39:10;18.55;;;6.35;;
68800;SDS011;55784;50.734;7.086;2023-12-14T14:41:35;16.17;;;5.43;;
68800;SDS011;55784;50.734;7.086;2023-12-14T14:44:01;17.60;;;5.17;;